Time;durP1;ratioP1;P1;durP2;ratioP2;P2;SDS_P1;SDS_P2;PMS_P1;PMS_P2;Temp;Humidity;BMP_temperature;BMP_pressure;BME280_temperature;BME280_humidity;BME280_pressure;Samples;Min_cycle;Max_cycle;Signal;HPM_P1;HPM_P2
2022/11/20 00:01:54;;;;;;;72.03;28.95;;;;;;;-5.58;100.00;100144.41;5073912;28;20039;-73
2022/11/20 00:04:25;;;;;;;71.68;29.95;;;;;;;-5.62;100.00;100134.44;5092380;28;20516;-72
2022/11/20 00:06:50;;;;;;;76.75;28.95;;;;;;;-5.68;100.00;100131.22;5092272;28;20038;-72
2022/11/20 00:09:19;;;;;;;73.65;29.33;;;;;;;-5.65;100.00;100136.00;5073665;28;20036;-72
2022/11/20 00:11:58;;;;;;;70.82;28.30;;;;;;;-5.65;100.00;100147.13;5092317;28;20457;-72
2022/11/20 00:14:24;;;;;;;89.00;34.63;;;;;;;-5.65;100.00;100138.78;5092383;28;20035;-72
2022/11/20 00:16:51;;;;;;;86.40;32.95;;;;;;;-5.66;100.00;100141.97;5093471;28;20027;-72
2022/11/20 00:19:17;;;;;;;75.38;31.92;;;;;;;-5.68;100.00;100142.34;5093668;28;20024;-72
2022/11/20 00:21:43;;;;;;;85.55;30.83;;;;;;;-5.66;100.00;100142.78;5093379;28;20165;-73
2022/11/20 00:24:10;;;;;;;75.22;28.85;;;;;;;-5.66;100.00;100142.78;5093813;28;20020;-72
2022/11/20 00:26:36;;;;;;;68.57;27.60;;;;;;;-5.65;100.00;100143.56;5093253;28;20358;-72
2022/11/20 00:29:02;;;;;;;65.20;25.85;;;;;;;-5.64;100.00;100137.59;5093467;28;20040;-73
2022/11/20 00:31:32;;;;;;;69.90;27.02;;;;;;;-5.63;100.00;100141.19;5058073;28;20043;-72
2022/11/20 00:34:04;;;;;;;68.22;26.58;;;;;;;-5.66;100.00;100137.19;5073732;28;20464;-73
2022/11/20 00:36:35;;;;;;;60.15;24.23;;;;;;;-5.65;100.00;100138.78;5092116;28;20020;-73
2022/11/20 00:39:16;;;;;;;67.45;28.90;;;;;;;-5.64;100.00;100143.16;5091904;28;20028;-71
2022/11/20 00:41:42;;;;;;;74.80;28.35;;;;;;;-5.63;100.00;100141.19;5090358;28;20043;-72
2022/11/20 00:44:07;;;;;;;66.45;25.48;;;;;;;-5.63;100.00;100141.97;5090201;28;20472;-72
2022/11/20 00:46:32;;;;;;;71.97;26.08;;;;;;;-5.66;100.00;100141.97;5094388;28;20017;-73
2022/11/20 00:48:58;;;;;;;64.93;26.50;;;;;;;-5.67;100.00;100146.72;5095630;28;20036;-73
2022/11/20 00:51:25;;;;;;;63.30;25.02;;;;;;;-5.68;100.00;100147.91;5095711;28;20103;-72
2022/11/20 00:53:51;;;;;;;68.75;27.25;;;;;;;-5.74;100.00;100137.53;5093803;28;20062;-73
2022/11/20 00:56:18;;;;;;;72.70;28.92;;;;;;;-5.73;100.00;100148.28;5093971;28;20051;-72
2022/11/20 00:58:46;;;;;;;78.65;32.15;;;;;;;-5.75;100.00;100147.84;5095082;28;20496;-74
2022/11/20 01:01:19;;;;;;;69.32;27.02;;;;;;;-5.75;100.00;100155.41;5095370;28;20107;-74
2022/11/20 01:03:47;;;;;;;65.25;25.42;;;;;;;-5.75;100.00;100152.63;5077007;28;20044;-72
2022/11/20 01:06:15;;;;;;;77.57;27.48;;;;;;;-5.74;100.00;100157.00;5095901;28;20028;-72
2022/11/20 01:08:41;;;;;;;71.60;25.90;;;;;;;-5.75;100.00;100156.19;5096714;28;20066;-73
2022/11/20 01:11:09;;;;;;;70.90;26.38;;;;;;;-5.77;100.00;100144.66;5078897;28;20089;-71
2022/11/20 01:13:38;;;;;;;61.45;24.65;;;;;;;-5.73;100.00;100145.47;5097504;28;20039;-72
2022/11/20 01:16:09;;;;;;;69.68;26.77;;;;;;;-5.72;100.00;100155.44;5097119;28;20059;-71
2022/11/20 01:18:35;;;;;;;69.30;27.30;;;;;;;-5.72;100.00;100152.66;5097055;28;20024;-73
2022/11/20 01:21:09;;;;;;;68.20;25.25;;;;;;;-5.72;100.00;100149.06;5078892;28;20055;-72
2022/11/20 01:23:37;;;;;;;64.75;26.95;;;;;;;-5.74;100.00;100151.44;5097105;28;20056;-73
2022/11/20 01:26:08;;;;;;;60.35;25.58;;;;;;;-5.76;100.00;100148.25;5097050;28;20024;-73
2022/11/20 01:28:34;;;;;;;;;;;;;;;-5.78;100.00;100156.97;5096912;28;20031;-73
2022/11/20 01:31:00;;;;;;;62.90;23.75;;;;;;;-5.78;100.00;100164.53;5096911;28;19908;-73
2022/11/20 01:33:25;;;;;;;77.72;27.35;;;;;;;-5.79;100.00;100152.59;5096237;28;20032;-72
2022/11/20 01:35:51;;;;;;;72.53;27.77;;;;;;;-5.80;100.00;100155.78;5096489;28;20111;-71
2022/11/20 01:38:17;;;;;;;69.97;25.60;;;;;;;-5.80;100.00;100155.78;5096498;28;20028;-73
2022/11/20 01:40:42;;;;;;;55.85;22.02;;;;;;;-5.83;100.00;100150.97;5096506;28;20062;-71
2022/11/20 01:43:20;;;;;;;55.13;23.15;;;;;;;-5.90;100.00;100148.94;5096322;28;20020;-74
2022/11/20 01:45:56;;;;;;;59.67;21.65;;;;;;;-5.89;100.00;100142.19;5061696;28;20020;-73
2022/11/20 01:48:22;;;;;;;55.38;23.55;;;;;;;-5.91;100.00;100147.34;5096230;28;20024;-72
2022/11/20 01:50:48;;;;;;;54.08;22.70;;;;;;;-5.89;100.00;100155.28;5078640;28;20044;-72
2022/11/20 01:53:16;;;;;;;55.70;21.65;;;;;;;-5.89;100.00;100155.28;5096227;28;20346;-72
2022/11/20 01:55:48;;;;;;;56.42;22.88;;;;;;;-5.90;100.00;100143.38;5096405;28;20040;-72
2022/11/20 01:58:15;;;;;;;56.20;21.85;;;;;;;-5.94;100.00;100143.34;5077802;28;20024;-72
2022/11/20 02:00:40;;;;;;;58.45;22.60;;;;;;;-5.95;100.00;100133.38;5078453;28;20020;-71
2022/11/20 02:03:09;;;;;;;53.45;22.00;;;;;;;-5.95;100.00;100146.53;5081876;28;20110;-72
2022/11/20 02:05:37;;;;;;;71.28;24.55;;;;;;;-5.96;100.00;100144.91;5098272;28;20051;-72
2022/11/20 02:08:04;;;;;;;60.40;22.95;;;;;;;-5.96;100.00;100142.94;5116472;28;20020;-72
2022/11/20 02:10:31;;;;;;;56.88;23.25;;;;;;;-6.00;100.00;100128.22;5098175;28;20030;-72
2022/11/20 02:15:40;;;;;;;48.00;19.85;;;;;;;-5.93;100.00;100136.59;5116308;28;20067;-72
2022/11/20 02:18:06;;;;;;;55.35;21.35;;;;;;;-5.94;100.00;100136.97;5098051;28;20047;-72
2022/11/20 02:20:31;;;;;;;49.67;20.27;;;;;;;-5.95;100.00;100138.19;5097159;28;20032;-72
2022/11/20 02:23:00;;;;;;;55.40;20.77;;;;;;;-5.99;100.00;100132.56;5095633;28;20472;-72
2022/11/20 02:25:27;;;;;;;52.20;21.77;;;;;;;-6.01;100.00;100134.97;5113302;28;20024;-73
2022/11/20 02:27:52;;;;;;;46.80;20.48;;;;;;;-6.00;100.00;100135.75;5077950;28;20131;-73
2022/11/20 02:30:18;;;;;;;46.67;19.55;;;;;;;-6.02;100.00;100132.56;5095180;28;20106;-72
2022/11/20 02:32:44;;;;;;;55.22;20.63;;;;;;;-6.03;100.00;100136.50;5113659;28;20027;-73
2022/11/20 02:35:29;;;;;;;50.13;20.13;;;;;;;-6.05;100.00;100136.13;5095421;28;20090;-73
2022/11/20 02:37:56;;;;;;;47.83;21.45;;;;;;;-6.06;100.00;100138.09;5103037;28;20100;-72
2022/11/20 02:40:23;;;;;;;54.72;21.58;;;;;;;-6.06;100.00;100140.06;5115567;28;20031;-72
2022/11/20 02:42:51;;;;;;;51.85;21.85;;;;;;;-6.07;100.00;100135.69;5114751;28;20476;-72
2022/11/20 02:45:17;;;;;;;55.05;21.55;;;;;;;-6.10;100.00;100128.13;5113531;28;20016;-71
2022/11/20 02:47:42;;;;;;;43.22;19.95;;;;;;;-6.09;100.00;100141.63;5095647;28;20460;-72
2022/11/20 02:50:08;;;;;;;46.03;21.17;;;;;;;-6.14;100.00;100132.84;5095640;28;20024;-71
2022/11/20 02:52:33;;;;;;;54.55;22.25;;;;;;;-6.11;100.00;100137.63;5114021;28;20077;-72
2022/11/20 02:54:59;;;;;;;48.92;20.77;;;;;;;-6.12;100.00;100138.81;5114044;28;20027;-72
2022/11/20 02:57:24;;;;;;;51.35;21.23;;;;;;;-6.12;100.00;100131.28;5113750;28;20027;-71
2022/11/20 02:59:49;;;;;;;58.55;21.88;;;;;;;-6.13;100.00;100135.25;5115280;28;20027;-71
2022/11/20 03:02:14;;;;;;;50.15;19.80;;;;;;;-6.14;100.00;100135.59;5115478;28;20499;-73
2022/11/20 03:04:40;;;;;;;47.13;20.15;;;;;;;-6.18;100.00;100129.22;5114985;28;20484;-71
2022/11/20 03:07:05;;;;;;;49.20;20.10;;;;;;;-6.16;100.00;100132.44;5114459;28;20023;-72
2022/11/20 03:09:31;;;;;;;45.92;19.85;;;;;;;-6.16;100.00;100132.44;5115202;28;20023;-73
2022/11/20 03:11:56;;;;;;;46.40;20.63;;;;;;;-6.18;100.00;100135.59;5115076;28;20464;-72
2022/11/20 03:14:21;;;;;;;61.28;21.50;;;;;;;-6.18;100.00;100138.38;5115072;28;20023;-73
2022/11/20 03:16:47;;;;;;;50.40;21.08;;;;;;;-6.17;100.00;100128.06;5115226;28;20024;-73
2022/11/20 03:19:13;;;;;;;51.67;21.15;;;;;;;-6.17;100.00;100126.06;5096897;28;20031;-73
2022/11/20 03:21:38;;;;;;;43.72;19.63;;;;;;;-6.16;100.00;100129.66;5114913;28;20479;-72
2022/11/20 03:24:04;;;;;;;42.80;19.23;;;;;;;-6.17;100.00;100125.28;5114838;28;20054;-72
2022/11/20 03:26:30;;;;;;;43.97;18.92;;;;;;;-6.15;100.00;100128.47;5115114;28;20445;-71
2022/11/20 03:28:58;;;;;;;46.15;20.77;;;;;;;-6.16;100.00;100122.13;5114976;28;20089;-72
2022/11/20 03:31:34;;;;;;;45.78;18.58;;;;;;;-6.16;100.00;100118.53;5079644;28;20051;-71
2022/11/20 03:34:00;;;;;;;41.45;18.27;;;;;;;-6.14;100.00;100127.28;5114450;28;20027;-72
2022/11/20 03:36:26;;;;;;;51.30;20.45;;;;;;;-6.16;100.00;100119.34;5096524;28;20383;-72
2022/11/20 03:38:54;;;;;;;54.05;21.13;;;;;;;-6.18;100.00;100110.56;5079179;28;20030;-71
2022/11/20 03:41:22;;;;;;;42.25;19.92;;;;;;;-6.17;100.00;100120.50;5079382;28;20030;-72
2022/11/20 03:43:52;;;;;;;49.53;20.77;;;;;;;-6.15;100.00;100120.13;5096362;28;20118;-72
2022/11/20 03:46:17;;;;;;;42.17;19.48;;;;;;;-6.13;100.00;100115.78;5114270;28;20022;-72
2022/11/20 03:48:43;;;;;;;40.35;19.00;;;;;;;-6.16;100.00;100119.34;5096051;28;20027;-72
2022/11/20 03:51:12;;;;;;;52.75;20.48;;;;;;;-6.13;100.00;100129.69;5096506;28;20027;-71
2022/11/20 03:53:39;;;;;;;46.25;20.55;;;;;;;-6.13;100.00;100131.66;5096300;28;20028;-72
2022/11/20 03:56:05;;;;;;;46.00;19.90;;;;;;;-6.16;100.00;100124.91;5114002;28;20027;-72
2022/11/20 03:58:30;;;;;;;49.13;21.20;;;;;;;-6.17;100.00;100130.84;5096542;28;20028;-73
2022/11/20 04:00:56;;;;;;;53.15;22.30;;;;;;;-6.19;100.00;100136.75;5114038;28;20028;-73
2022/11/20 04:03:21;;;;;;;60.47;23.05;;;;;;;-6.22;100.00;100134.75;5113950;28;20044;-71
2022/11/20 04:05:46;;;;;;;60.75;25.40;;;;;;;-6.25;100.00;100140.31;5078702;28;20092;-72
2022/11/20 04:08:12;;;;;;;57.67;25.30;;;;;;;-6.32;100.00;100137.44;5114330;28;20023;-72
2022/11/20 04:10:37;;;;;;;65.85;28.50;;;;;;;-6.36;100.00;100129.06;5095788;28;20028;-72
2022/11/20 04:13:03;;;;;;;70.10;29.38;;;;;;;-6.38;100.00;100143.34;5078998;28;20482;-72
2022/11/20 04:15:28;;;;;;;73.10;29.90;;;;;;;-6.38;100.00;100145.31;5113653;28;20431;-72
2022/11/20 04:17:54;;;;;;;60.88;26.27;;;;;;;-6.41;100.00;100146.09;5113892;28;20023;-72
2022/11/20 04:20:20;;;;;;;67.07;30.05;;;;;;;-6.43;100.00;100146.47;5094743;28;20032;-71
2022/11/20 04:22:45;;;;;;;74.53;28.90;;;;;;;-6.46;100.00;100143.66;5114010;28;20031;-71
2022/11/20 04:25:10;;;;;;;71.57;27.42;;;;;;;-6.48;100.00;100141.25;5113940;28;20107;-71
2022/11/20 04:27:36;;;;;;;58.13;24.33;;;;;;;-6.48;100.00;100144.03;5113945;28;20081;-71
2022/11/20 04:30:01;;;;;;;67.32;26.55;;;;;;;-6.52;100.00;100136.84;5113658;28;20023;-71
2022/11/20 04:32:27;;;;;;;69.38;25.92;;;;;;;-6.47;100.00;100136.50;5113722;28;20372;-72
2022/11/20 04:34:54;;;;;;;62.70;28.75;;;;;;;-6.50;100.00;100129.75;5113846;28;20025;-72
2022/11/20 04:37:19;;;;;;;65.43;27.13;;;;;;;-6.51;100.00;100127.34;5078853;28;20067;-72
2022/11/20 04:39:45;;;;;;;66.10;29.33;;;;;;;-6.49;100.00;100142.44;5113706;28;20027;-72
2022/11/20 04:42:28;;;;;;;94.22;36.83;;;;;;;-6.51;100.00;100132.91;5113617;28;20028;-72
2022/11/20 04:44:54;;;;;;;77.80;30.52;;;;;;;-6.53;100.00;100127.72;5094831;28;20024;-73
2022/11/20 04:47:20;;;;;;;112.32;48.35;;;;;;;-6.55;100.00;100118.19;5095253;28;20097;-72
2022/11/20 04:49:46;;;;;;;93.63;41.75;;;;;;;-6.60;100.00;100116.53;5113686;28;20024;-71
2022/11/20 04:52:11;;;;;;;102.38;46.33;;;;;;;-6.58;100.00;100122.50;5113815;28;20038;-71
2022/11/20 04:54:37;;;;;;;96.47;41.08;;;;;;;-6.59;100.00;100123.72;5113427;28;20051;-71
2022/11/20 04:57:02;;;;;;;96.20;37.13;;;;;;;-6.61;100.00;100116.91;5113895;28;20026;-72
2022/11/20 04:59:27;;;;;;;76.82;31.67;;;;;;;-6.60;100.00;100122.09;5113089;28;20472;-71
2022/11/20 05:01:53;;;;;;;76.43;33.80;;;;;;;-6.62;100.00;100124.44;5113791;28;20020;-71
2022/11/20 05:04:18;;;;;;;78.68;33.30;;;;;;;-6.62;100.00;100123.66;5113200;28;20048;-73
2022/11/20 05:06:45;;;;;;;92.63;35.65;;;;;;;-6.62;100.00;100109.75;5113288;28;20106;-73
2022/11/20 05:09:12;;;;;;;97.53;36.35;;;;;;;-6.63;100.00;100108.97;5113463;28;20464;-73
2022/11/20 05:11:39;;;;;;;105.43;38.15;;;;;;;-6.63;100.00;100108.97;5113053;28;20098;-71
2022/11/20 05:14:06;;;;;;;95.40;35.28;;;;;;;-6.65;100.00;100103.00;5112063;28;20035;-72
2022/11/20 05:16:35;;;;;;;80.93;29.52;;;;;;;-6.66;100.00;100103.38;5113111;28;20203;-71
2022/11/20 05:19:00;;;;;;;72.10;31.15;;;;;;;-6.69;100.00;100106.94;5095317;28;20039;-72
2022/11/20 05:21:27;;;;;;;78.85;30.42;;;;;;;-6.71;100.00;100106.50;5113533;28;20024;-73
2022/11/20 05:23:52;;;;;;;73.47;29.83;;;;;;;-6.73;100.00;100114.41;5113384;28;20361;-72
2022/11/20 05:26:23;;;;;;;77.65;29.05;;;;;;;-6.75;100.00;100106.47;5078079;28;20042;-72
2022/11/20 05:28:51;;;;;;;71.38;27.42;;;;;;;-6.78;100.00;100112.75;5113329;28;20036;-72
2022/11/20 05:31:22;;;;;;;75.72;28.15;;;;;;;-6.82;100.00;100101.63;5093885;28;20039;-71
2022/11/20 05:33:48;;;;;;;70.15;27.38;;;;;;;-6.84;100.00;100109.56;5095498;28;20036;-72
2022/11/20 05:36:14;;;;;;;68.25;26.92;;;;;;;-6.83;100.00;100102.00;5098578;28;20027;-71
2022/11/20 05:38:48;;;;;;;64.93;26.65;;;;;;;-6.83;100.00;100100.03;5081917;28;20043;-73
2022/11/20 05:41:23;;;;;;;78.35;29.13;;;;;;;-6.84;100.00;100097.66;5098536;28;20026;-71
2022/11/20 05:43:57;;;;;;;67.93;26.95;;;;;;;-6.86;100.00;100098.03;5116765;28;20059;-71
2022/11/20 05:46:24;;;;;;;64.80;28.38;;;;;;;-6.86;100.00;100100.78;5098547;28;20503;-72
2022/11/20 05:48:49;;;;;;;68.13;29.05;;;;;;;-6.87;100.00;100096.41;5098648;28;20438;-72
2022/11/20 05:51:18;;;;;;;71.93;28.83;;;;;;;-6.88;100.00;100086.47;5097149;28;20483;-72
2022/11/20 05:53:43;;;;;;;70.28;28.65;;;;;;;-6.90;100.00;100090.84;5098373;28;20039;-72
2022/11/20 05:56:12;;;;;;;71.53;29.40;;;;;;;-6.90;100.00;100083.31;5098160;28;20054;-72
2022/11/20 05:58:38;;;;;;;81.53;31.15;;;;;;;-6.93;100.00;100088.78;5081712;28;20043;-71
2022/11/20 06:01:19;;;;;;;76.25;27.77;;;;;;;-6.91;100.00;100083.66;5098516;28;20081;-72
2022/11/20 06:04:05;;;;;;;81.95;32.13;;;;;;;-6.87;100.00;100084.50;5116527;28;20047;-72
2022/11/20 06:06:37;;;;;;;78.30;29.45;;;;;;;-6.87;100.00;100085.31;5080908;28;20082;-72
2022/11/20 06:09:02;;;;;;;;;;;;;;;-6.87;100.00;100088.09;5117185;28;20038;-73
2022/11/20 06:11:28;;;;;;;80.40;30.35;;;;;;;-6.85;100.00;100082.16;5116268;28;19911;-72
2022/11/20 06:13:53;;;;;;;76.07;30.02;;;;;;;-6.82;100.00;100086.94;5116734;28;20027;-72
2022/11/20 06:16:20;;;;;;;72.28;30.20;;;;;;;-6.82;100.00;100082.19;5116173;28;20024;-73
2022/11/20 06:18:46;;;;;;;64.85;27.92;;;;;;;-6.82;100.00;100082.19;5098209;28;20038;-72
2022/11/20 06:21:17;;;;;;;79.95;30.17;;;;;;;-6.80;100.00;100087.38;5116044;28;20464;-72
2022/11/20 06:23:43;;;;;;;72.78;29.02;;;;;;;-6.80;100.00;100082.63;5116344;28;20107;-72
2022/11/20 06:26:24;;;;;;;73.50;29.88;;;;;;;-6.79;100.00;100072.31;5116262;28;20023;-71
2022/11/20 06:28:51;;;;;;;69.25;28.80;;;;;;;-6.75;100.00;100070.38;5115877;28;20030;-72
2022/11/20 06:31:19;;;;;;;67.47;30.65;;;;;;;-6.74;100.00;100080.28;5116007;28;20035;-72
2022/11/20 06:33:53;;;;;;;70.18;30.02;;;;;;;-6.71;100.00;100067.59;5098074;28;20050;-72
2022/11/20 06:36:21;;;;;;;73.63;29.70;;;;;;;-6.71;100.00;100068.41;5115922;28;20027;-72
2022/11/20 06:38:48;;;;;;;78.35;31.05;;;;;;;-6.67;100.00;100069.25;5115754;28;20034;-72
2022/11/20 06:41:16;;;;;;;77.05;29.90;;;;;;;-6.63;100.00;100063.72;5097705;28;20110;-72
2022/11/20 06:43:42;;;;;;;75.90;28.67;;;;;;;-6.60;100.00;100063.75;5096803;28;20035;-72
2022/11/20 06:46:10;;;;;;;78.25;28.75;;;;;;;-6.56;100.00;100063.78;5097507;28;20031;-72
2022/11/20 06:48:36;;;;;;;67.88;28.10;;;;;;;-6.56;100.00;100052.69;5080455;28;20082;-72
2022/11/20 06:51:07;;;;;;;77.45;33.22;;;;;;;-6.47;100.00;100061.47;5115438;28;20497;-71
2022/11/20 06:53:33;;;;;;;84.10;31.08;;;;;;;-6.42;100.00;100070.25;5115506;28;20032;-72
2022/11/20 06:55:58;;;;;;;93.10;36.40;;;;;;;-6.38;100.00;100068.31;5097004;28;20027;-71
2022/11/20 06:58:26;;;;;;;78.25;30.42;;;;;;;-6.33;100.00;100074.69;5096341;28;20046;-73
2022/11/20 07:01:01;;;;;;;89.05;33.88;;;;;;;-6.29;100.00;100079.09;5079994;28;20062;-73
2022/11/20 07:03:26;;;;;;;82.15;32.25;;;;;;;-6.25;100.00;100076.38;5115444;28;20075;-72
2022/11/20 07:05:55;;;;;;;74.47;30.63;;;;;;;-6.19;100.00;100078.38;5114987;28;20476;-72
2022/11/20 07:08:20;;;;;;;81.60;30.98;;;;;;;-6.13;100.00;100085.19;5114094;28;20416;-71
2022/11/20 07:10:46;;;;;;;89.03;34.95;;;;;;;-6.06;100.00;100098.34;5095019;28;20450;-71
2022/11/20 07:13:11;;;;;;;80.72;32.22;;;;;;;-6.05;100.00;100094.41;5113164;28;20392;-72
2022/11/20 07:15:38;;;;;;;81.82;33.47;;;;;;;-6.03;100.00;100098.38;5095386;28;20073;-72
2022/11/20 07:18:05;;;;;;;76.18;30.35;;;;;;;-5.99;100.00;100084.50;5114890;28;20031;-73
2022/11/20 07:20:30;;;;;;;77.43;31.02;;;;;;;-5.95;100.00;100082.56;5114362;28;20138;-72
2022/11/20 07:22:57;;;;;;;75.00;31.15;;;;;;;-5.88;100.00;100085.38;5078800;28;20024;-71
2022/11/20 07:25:24;;;;;;;83.25;31.05;;;;;;;-5.83;100.00;100078.66;5095496;28;20027;-73
2022/11/20 07:27:50;;;;;;;74.25;29.15;;;;;;;-5.78;100.00;100073.53;5113901;28;20039;-71
2022/11/20 07:30:16;;;;;;;82.00;32.15;;;;;;;-5.71;100.00;100070.00;5078486;28;20084;-72
2022/11/20 07:32:46;;;;;;;68.65;28.30;;;;;;;-5.66;100.00;100062.06;5078516;28;20119;-72
2022/11/20 07:35:13;;;;;;;74.57;31.08;;;;;;;-5.61;100.00;100061.72;5078939;28;20034;-71
2022/11/20 07:37:39;;;;;;;74.78;30.10;;;;;;;-5.55;100.00;100068.47;5113548;28;20038;-72
2022/11/20 07:40:05;;;;;;;83.95;32.88;;;;;;;-5.45;100.00;100060.59;5113415;28;20023;-72
2022/11/20 07:42:31;;;;;;;64.80;27.40;;;;;;;-5.40;100.00;100057.44;5113597;28;20096;-72
2022/11/20 07:44:57;;;;;;;75.78;30.75;;;;;;;-5.09;100.00;100056.75;5113297;28;20031;-72
2022/11/20 07:47:24;;;;;;;64.50;26.73;;;;;;;-4.81;100.00;100047.69;5113315;28;20027;-72
2022/11/20 07:49:51;;;;;;;63.78;27.40;;;;;;;-4.72;100.00;100053.66;5077435;28;20039;-72
2022/11/20 07:52:17;;;;;;;69.15;26.48;;;;;;;-4.63;100.00;100060.44;5094995;28;20023;-72
2022/11/20 07:54:42;;;;;;;71.13;29.38;;;;;;;-4.64;100.00;100050.50;5072753;28;20045;-71
2022/11/20 07:57:09;;;;;;;66.90;28.67;;;;;;;-4.57;100.00;100054.47;5095124;28;20376;-71
2022/11/20 07:59:36;;;;;;;67.47;27.33;;;;;;;-4.53;100.00;100056.06;5105108;28;20075;-71
2022/11/20 08:02:02;;;;;;;61.95;26.63;;;;;;;-4.46;100.00;100050.50;5113500;28;20487;-71
2022/11/20 08:04:28;;;;;;;66.93;28.02;;;;;;;-4.39;100.00;100044.94;5112154;28;20074;-71
2022/11/20 08:06:53;;;;;;;62.90;27.70;;;;;;;-4.31;100.00;100042.94;5094706;28;20028;-72
2022/11/20 08:09:20;;;;;;;55.13;24.00;;;;;;;-4.22;100.00;100049.69;5113217;28;20118;-72
2022/11/20 08:14:29;;;;;;;54.17;22.73;;;;;;;-4.01;100.00;100046.09;5098418;28;20046;-72
2022/11/20 08:16:56;;;;;;;58.55;22.02;;;;;;;-3.90;100.00;100043.28;5113835;28;20016;-78
2022/11/20 08:19:21;;;;;;;52.42;23.38;;;;;;;-3.93;100.00;100011.44;5114305;28;20031;-79
2022/11/20 08:21:47;;;;;;;57.65;23.30;;;;;;;-3.72;100.00;100034.88;5114589;28;20143;-82
2022/11/20 08:24:13;;;;;;;56.22;23.00;;;;;;;-3.63;100.00;100036.06;5096463;28;20024;-80
2022/11/20 08:26:39;;;;;;;59.50;22.77;;;;;;;-3.24;100.00;100035.94;5095912;28;20024;-78
2022/11/20 08:29:08;;;;;;;53.83;22.80;;;;;;;-2.06;100.00;100026.34;5079218;28;20020;-82
2022/11/20 08:31:35;;;;;;;45.70;19.92;;;;;;;-1.38;100.00;100020.00;5113958;28;20058;-81
2022/11/20 08:34:00;;;;;;;47.33;22.10;;;;;;;-1.41;100.00;100007.66;5114045;28;20073;-81
2022/11/20 08:36:26;;;;;;;46.83;21.95;;;;;;;-1.63;100.00;100004.28;5113947;28;20027;-81
2022/11/20 08:38:54;;;;;;;47.17;19.77;;;;;;;-1.88;100.00;100000.16;5114241;28;20081;-85
2022/11/20 08:41:25;;;;;;;45.55;20.27;;;;;;;-2.06;100.00;100003.16;5079255;28;20032;-84
2022/11/20 08:43:59;;;;;;;46.30;21.33;;;;;;;-2.16;100.00;100013.22;5113907;28;20073;-84
2022/11/20 08:46:25;;;;;;;43.63;19.48;;;;;;;-2.24;100.00;100005.28;5114376;28;20440;-83
2022/11/20 08:48:51;;;;;;;44.78;19.33;;;;;;;-2.29;100.00;100005.75;5095695;28;20039;-84
2022/11/20 08:51:17;;;;;;;43.17;19.73;;;;;;;-2.31;100.00;100002.56;5096375;28;20031;-80
2022/11/20 08:53:51;;;;;;;47.00;21.75;;;;;;;-2.31;100.00;100006.16;5093995;28;20466;-73
2022/11/20 08:56:17;;;;;;;41.63;19.50;;;;;;;-2.31;100.00;100010.97;5113050;28;20019;-74
2022/11/20 08:58:43;;;;;;;40.60;18.80;;;;;;;-2.32;100.00;100009.38;5113922;28;20020;-73
2022/11/20 09:01:10;;;;;;;40.15;17.98;;;;;;;-2.31;100.00;100008.97;5112836;28;20483;-74
2022/11/20 09:03:36;;;;;;;42.75;17.95;;;;;;;-2.32;100.00;99998.97;5078628;28;20052;-72
2022/11/20 09:06:04;;;;;;;32.28;17.58;;;;;;;-2.29;100.00;100002.94;5115253;28;20031;-74
2022/11/20 09:08:30;;;;;;;32.03;15.70;;;;;;;-2.24;100.00;99999.69;5117623;28;20031;-76
2022/11/20 09:10:59;;;;;;;41.42;18.30;;;;;;;-2.20;100.00;99994.88;5099821;28;20020;-73
2022/11/20 09:13:27;;;;;;;38.13;18.05;;;;;;;-2.18;100.00;99995.25;5095335;28;20092;-74
2022/11/20 09:16:06;;;;;;;38.25;18.02;;;;;;;-2.12;100.00;100000.00;5099187;28;20476;-76
2022/11/20 09:18:32;;;;;;;43.97;19.20;;;;;;;-2.11;100.00;100000.78;5117378;28;20474;-76
2022/11/20 09:21:03;;;;;;;37.03;17.88;;;;;;;-2.07;100.00;99995.94;5100084;28;20028;-83
2022/11/20 09:23:32;;;;;;;35.88;16.90;;;;;;;-2.04;100.00;99995.91;5124438;27;20031;-79
2022/11/20 09:26:05;;;;;;;46.08;19.17;;;;;;;-2.02;100.00;99993.50;5105421;28;20026;-80
2022/11/20 09:28:40;;;;;;;39.78;17.73;;;;;;;-2.00;100.00;99990.28;5083946;28;20023;-80
2022/11/20 09:31:11;;;;;;;41.85;17.98;;;;;;;-2.06;100.00;99972.34;5117851;28;20157;-81
2022/11/20 09:33:36;;;;;;;35.53;16.75;;;;;;;-2.01;100.00;99989.50;5118402;28;20027;-81
2022/11/20 09:36:03;;;;;;;40.45;18.38;;;;;;;-2.03;100.00;99979.91;5118587;28;20030;-81
2022/11/20 09:38:30;;;;;;;36.72;17.25;;;;;;;-1.96;100.00;99970.66;5118552;28;20039;-78
2022/11/20 09:41:19;;;;;;;40.88;17.17;;;;;;;-1.91;100.00;99978.59;5118938;28;20016;-77
2022/11/20 09:44:04;;;;;;;35.30;16.95;;;;;;;-1.95;100.00;99975.81;5065952;28;20032;-76
2022/11/20 09:46:40;;;;;;;36.78;18.10;;;;;;;-1.98;100.00;99964.66;5101089;28;20074;-80
2022/11/20 09:49:37;;;;;;;40.38;17.70;;;;;;;-1.94;100.00;99968.22;5129138;27;20475;-78
2022/11/20 09:52:25;;;;;;;41.65;16.75;;;;;;;-1.91;100.00;99962.59;5098263;28;20042;-81
2022/11/20 09:54:52;;;;;;;40.28;17.00;;;;;;;-1.88;100.00;99958.16;5119429;27;20498;-78
2022/11/20 09:57:21;;;;;;;41.30;18.92;;;;;;;-1.83;100.00;99960.50;5104430;28;20040;-78
2022/11/20 09:59:55;;;;;;;41.17;17.60;;;;;;;-1.76;100.00;99952.84;5095914;27;20027;-78
2022/11/20 10:02:44;;;;;;;36.88;17.20;;;;;;;-1.73;100.00;99954.78;5109844;27;20027;-75
2022/11/20 10:05:17;;;;;;;39.00;17.98;;;;;;;-1.67;100.00;99957.94;5132596;27;20039;-76
2022/11/20 10:07:48;;;;;;;39.72;18.13;;;;;;;-1.65;100.00;99964.69;5111636;27;20031;-78
2022/11/20 10:10:22;;;;;;;35.80;17.02;;;;;;;-1.58;100.00;99961.81;5117002;27;20023;-79
2022/11/20 10:12:50;;;;;;;33.67;16.60;;;;;;;-1.58;100.00;99956.22;5130495;27;20054;-79
2022/11/20 10:15:27;;;;;;;33.58;15.50;;;;;;;-1.60;100.00;99946.63;5124686;27;20028;-78
2022/11/20 10:18:11;;;;;;;37.35;16.05;;;;;;;-1.53;100.00;99952.16;5109950;27;20035;-77
2022/11/20 10:20:50;;;;;;;32.40;15.98;;;;;;;-1.50;100.00;99951.28;5121080;27;20147;-78
2022/11/20 10:23:47;;;;;;;36.00;15.82;;;;;;;-1.43;100.00;99942.03;5114825;28;20032;-79
2022/11/20 10:26:50;;;;;;;35.70;15.63;;;;;;;-1.36;100.00;99934.28;5113625;27;20032;-78
2022/11/20 10:29:29;;;;;;;35.38;16.50;;;;;;;-1.32;100.00;99929.47;5114009;27;20042;-78
2022/11/20 10:31:57;;;;;;;36.05;15.98;;;;;;;-1.28;100.00;99929.41;5117201;28;20479;-78
2022/11/20 10:34:25;;;;;;;37.17;17.60;;;;;;;-1.25;100.00;99918.13;5116101;28;20131;-77
2022/11/20 10:36:56;;;;;;;29.40;14.65;;;;;;;-1.25;100.00;99922.94;5079645;28;20019;-77
2022/11/20 10:39:26;;;;;;;33.90;15.07;;;;;;;-1.25;100.00;99915.34;5078954;28;20462;-77
2022/11/20 10:41:53;;;;;;;30.75;13.68;;;;;;;-1.18;100.00;99914.44;5077403;28;20031;-78
2022/11/20 10:47:17;;;;;;;34.50;14.85;;;;;;;-1.16;100.00;99909.19;5114018;28;20042;-78
2022/11/20 10:49:45;;;;;;;33.10;13.55;;;;;;;-1.06;100.00;99913.09;5095481;28;20477;-78
2022/11/20 10:52:49;;;;;;;31.77;15.63;;;;;;;-1.03;100.00;99918.63;5095195;28;20023;-78
2022/11/20 10:55:33;;;;;;;37.60;14.30;;;;;;;-0.98;100.00;99903.34;5011298;28;20036;-79
2022/11/20 10:58:07;;;;;;;33.90;15.48;;;;;;;-0.92;100.00;99901.66;5012959;28;20042;-79
2022/11/20 11:00:33;;;;;;;34.08;15.45;;;;;;;-0.90;100.00;99910.41;5079081;28;20109;-79
2022/11/20 11:03:04;;;;;;;32.50;15.52;;;;;;;-0.88;100.00;99913.59;5115279;28;20047;-77
2022/11/20 11:05:37;;;;;;;34.97;15.35;;;;;;;-0.85;100.00;99910.72;5115795;28;20073;-78
2022/11/20 11:08:05;;;;;;;29.95;14.95;;;;;;;-0.79;100.00;99903.44;5097593;28;20034;-79
2022/11/20 11:10:42;;;;;;;32.40;14.82;;;;;;;-0.73;100.00;99892.53;5115538;28;20487;-78
2022/11/20 11:13:08;;;;;;;36.88;16.30;;;;;;;-0.68;100.00;99899.66;5115948;28;20027;-77
2022/11/20 11:15:39;;;;;;;36.25;15.93;;;;;;;-0.62;100.00;99887.53;5098652;28;20103;-78
2022/11/20 11:18:04;;;;;;;29.15;16.08;;;;;;;-0.56;100.00;99882.19;5097989;28;20110;-79
2022/11/20 11:20:30;;;;;;;34.92;15.57;;;;;;;-0.52;100.00;99875.31;5115724;28;20070;-79